createdAt,value
2022-09-28T00:03:15.625Z,81.79
2022-09-28T00:08:19.551Z,81.80
2022-09-28T00:13:23.777Z,81.73
2022-09-28T00:18:26.989Z,81.74
2022-09-28T00:23:29.704Z,81.96
2022-09-28T00:28:33.312Z,81.72
2022-09-28T00:33:36.598Z,81.87
2022-09-28T00:38:41.181Z,81.78
2022-09-28T00:43:43.909Z,81.65
2022-09-28T00:48:56.614Z,81.47
2022-09-28T00:54:02.692Z,81.58
2022-09-28T00:59:05.407Z,81.68
2022-09-28T01:04:08.640Z,81.75
2022-09-28T01:09:14.538Z,81.65
2022-09-28T01:14:19.152Z,81.76
2022-09-28T01:19:33.887Z,81.61
2022-09-28T01:24:58.408Z,81.72
2022-09-28T01:30:00.935Z,81.95
2022-09-28T01:35:40.190Z,81.78
2022-09-28T01:40:45.612Z,81.66
2022-09-28T01:45:54.019Z,81.43
2022-09-28T01:51:04.281Z,81.73
2022-09-28T01:56:24.125Z,81.70
2022-09-28T02:01:44.774Z,81.61
2022-09-28T02:07:10.536Z,81.69
2022-09-28T02:12:31.091Z,81.71
2022-09-28T02:17:34.044Z,81.52
2022-09-28T02:22:56.307Z,81.59
2022-09-28T02:28:02.516Z,81.53
2022-09-28T02:33:14.374Z,82.10
2022-09-28T02:38:17.415Z,82.27
2022-09-28T02:43:34.993Z,81.96
2022-09-28T02:49:21.807Z,81.75
2022-09-28T02:55:03.893Z,81.43
2022-09-28T03:00:15.153Z,81.38
2022-09-28T03:05:30.717Z,81.56
2022-09-28T03:11:13.960Z,81.38
2022-09-28T03:16:20.152Z,81.56
2022-09-28T03:21:23.598Z,81.54
2022-09-28T03:26:26.013Z,81.70
2022-09-28T03:31:28.359Z,81.86
2022-09-28T03:36:30.925Z,82.19
2022-09-28T03:41:33.898Z,81.92
2022-09-28T03:46:36.854Z,81.85
2022-09-28T03:51:39.245Z,81.38
2022-09-28T03:56:42.177Z,81.49
2022-09-28T04:01:45.143Z,81.44
2022-09-28T04:06:47.690Z,81.39
2022-09-28T04:12:03.442Z,81.48
2022-09-28T04:17:07.930Z,81.54
2022-09-28T04:22:10.573Z,81.94
2022-09-28T04:27:32.553Z,81.50
2022-09-28T04:32:34.315Z,81.70
2022-09-28T04:37:37.247Z,81.46
2022-09-28T04:42:39.841Z,82.36
2022-09-28T04:47:42.849Z,81.82
2022-09-28T04:52:46.143Z,81.85
2022-09-28T04:57:49.273Z,81.91
2022-09-28T05:02:51.303Z,81.76
2022-09-28T05:07:59.449Z,81.75
2022-09-28T05:13:02.680Z,82.14
2022-09-28T05:18:06.673Z,81.94
2022-09-28T05:23:13.365Z,82.63
2022-09-28T05:28:24.350Z,82.34
2022-09-28T05:33:27.882Z,82.51
2022-09-28T05:38:31.133Z,82.55
2022-09-28T05:43:34.362Z,82.65
2022-09-28T05:48:36.877Z,83.25
2022-09-28T05:53:39.379Z,83.21
2022-09-28T05:58:41.864Z,83.14
2022-09-28T06:03:45.466Z,83.12
2022-09-28T06:08:48.531Z,82.79
2022-09-28T06:13:56.257Z,83.14
2022-09-28T06:18:59.819Z,83.32
2022-09-28T06:24:03.424Z,83.52
2022-09-28T06:29:06.505Z,83.36
2022-09-28T06:34:09.320Z,83.52
2022-09-28T06:39:11.969Z,83.27
2022-09-28T06:44:15.300Z,82.67
2022-09-28T06:49:21.453Z,82.16
2022-09-28T06:54:25.961Z,81.31
2022-09-28T06:59:29.734Z,80.94
2022-09-28T07:04:34.146Z,81.00
2022-09-28T07:09:42.692Z,80.19
2022-09-28T07:14:50.506Z,80.21
2022-09-28T07:20:01.446Z,80.30
2022-09-28T07:25:09.692Z,80.04
2022-09-28T07:30:13.936Z,79.95
2022-09-28T07:35:20.358Z,79.43
2022-09-28T07:40:44.141Z,79.62
2022-09-28T07:45:55.490Z,78.75
2022-09-28T07:51:01.133Z,79.78
2022-09-28T07:56:08.862Z,79.71
2022-09-28T08:01:15.188Z,78.40
2022-09-28T08:06:18.283Z,77.31
2022-09-28T08:11:21.391Z,76.91
2022-09-28T08:16:24.865Z,77.04
2022-09-28T08:21:46.222Z,77.26
2022-09-28T08:26:50.051Z,76.62
2022-09-28T08:31:52.614Z,75.59
2022-09-28T08:36:59.050Z,74.90
2022-09-28T08:42:29.604Z,73.39
2022-09-28T08:48:12.957Z,73.10
2022-09-28T08:53:33.765Z,72.63
2022-09-28T08:58:40.551Z,72.21
2022-09-28T09:03:45.507Z,71.12
2022-09-28T09:09:11.926Z,70.33
2022-09-28T09:14:35.688Z,70.76
2022-09-28T09:20:05.705Z,70.60
2022-09-28T09:25:20.200Z,70.35
2022-09-28T09:30:27.077Z,70.08
2022-09-28T09:35:55.760Z,70.52
2022-09-28T09:46:30.868Z,68.51
2022-09-28T09:52:05.656Z,69.31
2022-09-28T09:57:18.008Z,68.80
2022-09-28T10:02:29.939Z,67.91
2022-09-28T10:07:55.017Z,68.19
2022-09-28T10:12:58.545Z,67.46
2022-09-28T10:18:10.911Z,67.14
2022-09-28T10:23:25.913Z,67.43
2022-09-28T10:28:47.844Z,67.13
2022-09-28T10:33:53.412Z,67.07
2022-09-28T10:38:58.120Z,65.69
2022-09-28T10:44:07.566Z,65.02
2022-09-28T10:49:19.125Z,65.28
2022-09-28T10:54:25.686Z,65.54
2022-09-28T10:59:37.850Z,64.89
2022-09-28T11:04:48.307Z,63.71
2022-09-28T11:09:56.868Z,63.00
2022-09-28T11:15:08.433Z,63.11
2022-09-28T11:20:28.110Z,61.79
2022-09-28T11:25:32.353Z,62.00
2022-09-28T11:30:53.747Z,62.15
2022-09-28T11:36:14.725Z,62.86
2022-09-28T11:41:39.109Z,63.31
2022-09-28T11:47:17.420Z,62.78
2022-09-28T11:52:29.576Z,62.98
2022-09-28T11:57:41.504Z,63.35
2022-09-28T12:02:54.532Z,63.21
2022-09-28T12:08:05.363Z,62.51
2022-09-28T12:13:20.796Z,61.35
2022-09-28T12:19:04.758Z,60.46
2022-09-28T12:24:44.975Z,60.83
2022-09-28T12:30:19.299Z,61.21
2022-09-28T12:35:49.914Z,61.26
2022-09-28T12:41:16.677Z,61.04
2022-09-28T12:46:37.685Z,61.44
2022-09-28T12:52:19.543Z,61.71
2022-09-28T12:57:49.718Z,61.82
2022-09-28T13:03:16.472Z,61.90
2022-09-28T13:08:33.537Z,61.71
2022-09-28T13:13:38.473Z,62.36
2022-09-28T13:19:17.638Z,62.42
2022-09-28T13:24:32.643Z,62.30
2022-09-28T13:34:50.555Z,62.14
2022-09-28T13:40:06.478Z,62.08
2022-09-28T13:45:21.776Z,62.21
2022-09-28T13:50:38.857Z,62.66
2022-09-28T13:55:51.129Z,62.62
2022-09-28T14:01:11.318Z,62.07
2022-09-28T14:06:30.463Z,62.25
2022-09-28T14:11:36.417Z,62.78
2022-09-28T14:16:40.822Z,63.14
2022-09-28T14:22:01.909Z,63.80
2022-09-28T14:27:14.706Z,64.29
2022-09-28T14:32:35.001Z,64.73
2022-09-28T14:38:00.551Z,65.70
2022-09-28T14:43:49.587Z,66.31
2022-09-28T14:48:57.659Z,66.98
2022-09-28T14:54:04.780Z,67.27
2022-09-28T14:59:16.915Z,67.94
2022-09-28T15:04:20.031Z,68.15
2022-09-28T15:09:34.145Z,68.53
2022-09-28T15:14:55.157Z,68.96
2022-09-28T15:20:08.603Z,69.77
2022-09-28T15:25:20.862Z,69.85
2022-09-28T15:30:33.821Z,70.52
2022-09-28T15:35:38.466Z,70.88
2022-09-28T15:40:42.083Z,71.28
2022-09-28T15:46:03.089Z,71.67
2022-09-28T15:51:12.512Z,72.00
2022-09-28T15:56:19.042Z,72.14
2022-09-28T16:01:30.811Z,72.43
2022-09-28T16:06:34.198Z,73.02
2022-09-28T16:11:44.571Z,73.54
2022-09-28T16:16:55.343Z,73.45
2022-09-28T16:22:02.386Z,73.94
2022-09-28T16:27:30.812Z,74.41
2022-09-28T16:32:41.968Z,74.83
2022-09-28T16:37:49.011Z,75.03
2022-09-28T16:42:55.933Z,75.40
2022-09-28T16:47:59.850Z,75.44
2022-09-28T16:53:40.780Z,75.67
2022-09-28T16:58:50.386Z,76.15
2022-09-28T17:03:53.551Z,76.22
2022-09-28T17:09:06.771Z,76.36
2022-09-28T17:14:11.917Z,76.65
2022-09-28T17:19:26.107Z,76.74
2022-09-28T17:24:36.762Z,76.95
2022-09-28T17:29:44.877Z,77.07
2022-09-28T17:35:00.930Z,77.45
2022-09-28T17:40:26.022Z,77.53
2022-09-28T17:45:30.945Z,77.74
2022-09-28T17:50:34.997Z,78.06
2022-09-28T17:55:39.559Z,78.37
2022-09-28T18:00:43.635Z,78.30
2022-09-28T18:05:50.546Z,78.53
2022-09-28T18:10:55.207Z,78.32
2022-09-28T18:16:02.818Z,78.61
2022-09-28T18:21:08.297Z,78.79
2022-09-28T18:26:14.601Z,78.88
2022-09-28T18:31:20.009Z,79.17
2022-09-28T18:36:29.659Z,79.15
2022-09-28T18:41:32.730Z,79.27
2022-09-28T18:46:36.451Z,79.33
2022-09-28T18:51:39.009Z,79.75
2022-09-28T18:56:42.576Z,79.70
2022-09-28T19:01:48.698Z,79.52
2022-09-28T19:06:55.226Z,79.78
2022-09-28T19:11:58.521Z,80.13
2022-09-28T19:17:01.417Z,80.22
2022-09-28T19:22:09.029Z,80.15
2022-09-28T19:27:14.479Z,79.81
2022-09-28T19:32:17.904Z,79.85
2022-09-28T19:37:21.417Z,79.69
2022-09-28T19:42:24.648Z,79.83
2022-09-28T19:47:28.914Z,80.05
2022-09-28T19:52:31.345Z,80.28
2022-09-28T19:57:34.582Z,80.27
2022-09-28T20:02:37.121Z,80.48
2022-09-28T20:07:40.774Z,80.40
2022-09-28T20:12:44.385Z,80.77
2022-09-28T20:17:47.684Z,80.89
2022-09-28T20:22:51.329Z,80.93
2022-09-28T20:27:55.325Z,80.98
2022-09-28T20:33:00.928Z,80.90
2022-09-28T20:38:13.131Z,81.07
2022-09-28T20:43:22.457Z,81.05
2022-09-28T20:48:30.005Z,80.91
2022-09-28T20:53:35.152Z,81.17
2022-09-28T20:58:43.639Z,81.07
2022-09-28T21:03:55.616Z,81.32
2022-09-28T21:09:03.047Z,80.98
2022-09-28T21:14:08.772Z,81.42
2022-09-28T21:19:12.517Z,81.42
2022-09-28T21:24:16.268Z,81.46
2022-09-28T21:29:19.780Z,81.73
2022-09-28T21:34:22.609Z,81.95
2022-09-28T21:39:26.319Z,81.99
2022-09-28T21:44:29.539Z,82.13
2022-09-28T21:49:32.853Z,82.37
2022-09-28T21:54:37.275Z,82.27
2022-09-28T21:59:40.114Z,82.18
2022-09-28T22:04:43.187Z,82.15
2022-09-28T22:09:53.498Z,82.54
2022-09-28T22:14:57.250Z,82.50
2022-09-28T22:20:00.815Z,82.40
2022-09-28T22:25:06.646Z,82.03
2022-09-28T22:30:09.341Z,81.76
2022-09-28T22:35:12.804Z,81.88
2022-09-28T22:40:16.104Z,82.08
2022-09-28T22:45:19.151Z,82.06
2022-09-28T22:50:21.781Z,82.04
2022-09-28T22:55:24.696Z,82.02
2022-09-28T23:00:28.155Z,82.17
2022-09-28T23:05:31.761Z,81.45
2022-09-28T23:10:34.577Z,81.61
2022-09-28T23:15:36.860Z,82.17
2022-09-28T23:20:39.669Z,81.84
2022-09-28T23:25:42.591Z,81.51
2022-09-28T23:30:45.408Z,82.08
2022-09-28T23:35:47.570Z,82.24
2022-09-28T23:40:50.289Z,82.32
2022-09-28T23:45:52.655Z,82.15
2022-09-28T23:50:56.219Z,82.18
2022-09-28T23:55:59.957Z,81.92
